sensor_id;sensor_type;location;lat;lon;timestamp;pressure;altitude;pressure_sealevel;temperature;humidity
31911;BME280;18457;52.432;16.914;2022-10-16T00:02:28;100328.38;;;14.82;94.69
31911;BME280;18457;52.432;16.914;2022-10-16T00:05:00;100322.23;;;14.81;94.87
31911;BME280;18457;52.432;16.914;2022-10-16T00:07:31;100316.36;;;14.82;94.65
31911;BME280;18457;52.432;16.914;2022-10-16T00:10:03;100310.48;;;14.79;94.91
31911;BME280;18457;52.432;16.914;2022-10-16T00:12:35;100304.48;;;14.75;95.16
31911;BME280;18457;52.432;16.914;2022-10-16T00:15:08;100305.20;;;14.71;95.43
31911;BME280;18457;52.432;16.914;2022-10-16T00:17:40;100303.88;;;14.72;95.38
31911;BME280;18457;52.432;16.914;2022-10-16T00:20:12;100301.67;;;14.77;95.09
31911;BME280;18457;52.432;16.914;2022-10-16T00:22:44;100304.75;;;14.82;94.61
31911;BME280;18457;52.432;16.914;2022-10-16T00:25:15;100304.27;;;14.80;94.83
31911;BME280;18457;52.432;16.914;2022-10-16T00:27:47;100309.06;;;14.83;94.46
31911;BME280;18457;52.432;16.914;2022-10-16T00:30:19;100310.86;;;14.83;94.58
31911;BME280;18457;52.432;16.914;2022-10-16T00:32:53;100312.66;;;14.84;94.47
31911;BME280;18457;52.432;16.914;2022-10-16T00:35:25;100321.51;;;14.85;94.24
31911;BME280;18457;52.432;16.914;2022-10-16T00:37:58;100322.66;;;14.88;94.25
31911;BME280;18457;52.432;16.914;2022-10-16T00:40:29;100327.54;;;14.89;94.20
31911;BME280;18457;52.432;16.914;2022-10-16T00:43:02;100327.06;;;14.92;94.06
31911;BME280;18457;52.432;16.914;2022-10-16T00:45:33;100321.42;;;14.92;94.08
31911;BME280;18457;52.432;16.914;2022-10-16T00:48:07;100323.53;;;14.94;94.05
31911;BME280;18457;52.432;16.914;2022-10-16T00:50:42;100322.19;;;14.95;93.87
31911;BME280;18457;52.432;16.914;2022-10-16T00:53:15;100320.84;;;14.97;93.87
31911;BME280;18457;52.432;16.914;2022-10-16T00:55:47;100320.28;;;14.97;93.73
31911;BME280;18457;52.432;16.914;2022-10-16T00:58:19;100316.67;;;14.96;93.82
31911;BME280;18457;52.432;16.914;2022-10-16T01:00:51;100320.60;;;14.94;94.06
31911;BME280;18457;52.432;16.914;2022-10-16T01:03:29;100322.77;;;14.94;94.28
31911;BME280;18457;52.432;16.914;2022-10-16T01:06:09;100326.89;;;14.96;94.02
31911;BME280;18457;52.432;16.914;2022-10-16T01:08:58;100326.19;;;14.99;93.77
31911;BME280;18457;52.432;16.914;2022-10-16T01:11:35;100325.30;;;14.99;93.73
31911;BME280;18457;52.432;16.914;2022-10-16T01:14:14;100327.39;;;15.01;93.81
31911;BME280;18457;52.432;16.914;2022-10-16T01:16:52;100330.64;;;15.01;93.85
31911;BME280;18457;52.432;16.914;2022-10-16T01:19:38;100331.68;;;15.03;93.69
31911;BME280;18457;52.432;16.914;2022-10-16T01:22:15;100335.88;;;15.03;93.82
31911;BME280;18457;52.432;16.914;2022-10-16T01:24:49;100328.78;;;15.03;93.75
31911;BME280;18457;52.432;16.914;2022-10-16T01:27:22;100324.42;;;15.02;93.85
31911;BME280;18457;52.432;16.914;2022-10-16T01:29:59;100323.09;;;15.04;93.97
31911;BME280;18457;52.432;16.914;2022-10-16T01:32:38;100325.14;;;15.07;93.74
31911;BME280;18457;52.432;16.914;2022-10-16T01:35:14;100327.99;;;15.08;93.64
31911;BME280;18457;52.432;16.914;2022-10-16T01:37:51;100324.95;;;15.11;93.50
31911;BME280;18457;52.432;16.914;2022-10-16T01:40:27;100329.08;;;15.12;93.37
31911;BME280;18457;52.432;16.914;2022-10-16T01:43:02;100332.48;;;15.13;93.50
31911;BME280;18457;52.432;16.914;2022-10-16T01:45:36;100334.61;;;15.15;93.34
31911;BME280;18457;52.432;16.914;2022-10-16T01:48:09;100337.29;;;15.16;93.49
31911;BME280;18457;52.432;16.914;2022-10-16T01:53:32;100349.20;;;15.22;93.34
31911;BME280;18457;52.432;16.914;2022-10-16T01:56:06;100350.11;;;15.22;93.22
31911;BME280;18457;52.432;16.914;2022-10-16T01:58:43;100349.05;;;15.22;93.22
31911;BME280;18457;52.432;16.914;2022-10-16T02:01:20;100347.13;;;15.24;93.21
31911;BME280;18457;52.432;16.914;2022-10-16T02:03:55;100341.33;;;15.24;93.28
31911;BME280;18457;52.432;16.914;2022-10-16T02:06:29;100342.71;;;15.25;93.41
31911;BME280;18457;52.432;16.914;2022-10-16T02:09:01;100342.59;;;15.28;93.25
31911;BME280;18457;52.432;16.914;2022-10-16T02:11:33;100339.79;;;15.30;93.21
31911;BME280;18457;52.432;16.914;2022-10-16T02:14:05;100342.12;;;15.30;93.23
31911;BME280;18457;52.432;16.914;2022-10-16T02:16:36;100343.04;;;15.30;93.29
31911;BME280;18457;52.432;16.914;2022-10-16T02:19:09;100352.35;;;15.33;93.23
31911;BME280;18457;52.432;16.914;2022-10-16T02:21:40;100355.09;;;15.33;93.54
31911;BME280;18457;52.432;16.914;2022-10-16T02:24:26;100358.90;;;15.33;93.54
31911;BME280;18457;52.432;16.914;2022-10-16T02:27:07;100356.83;;;15.35;93.44
31911;BME280;18457;52.432;16.914;2022-10-16T02:29:44;100355.25;;;15.38;93.38
31911;BME280;18457;52.432;16.914;2022-10-16T02:32:23;100351.43;;;15.37;93.42
31911;BME280;18457;52.432;16.914;2022-10-16T02:34:56;100348.02;;;15.37;93.52
31911;BME280;18457;52.432;16.914;2022-10-16T02:37:30;100346.50;;;15.38;93.51
31911;BME280;18457;52.432;16.914;2022-10-16T02:40:02;100343.95;;;15.38;93.54
31911;BME280;18457;52.432;16.914;2022-10-16T02:42:37;100346.59;;;15.40;93.41
31911;BME280;18457;52.432;16.914;2022-10-16T02:45:11;100344.21;;;15.40;93.53
31911;BME280;18457;52.432;16.914;2022-10-16T02:47:42;100344.80;;;15.39;93.66
31911;BME280;18457;52.432;16.914;2022-10-16T02:50:14;100346.79;;;15.40;93.60
31911;BME280;18457;52.432;16.914;2022-10-16T02:52:46;100350.55;;;15.41;93.65
31911;BME280;18457;52.432;16.914;2022-10-16T02:55:18;100350.99;;;15.44;93.51
31911;BME280;18457;52.432;16.914;2022-10-16T02:57:50;100350.44;;;15.44;93.39
31911;BME280;18457;52.432;16.914;2022-10-16T03:00:21;100353.83;;;15.46;93.52
31911;BME280;18457;52.432;16.914;2022-10-16T03:02:53;100356.70;;;15.46;93.59
31911;BME280;18457;52.432;16.914;2022-10-16T03:05:25;100355.39;;;15.47;93.55
31911;BME280;18457;52.432;16.914;2022-10-16T03:07:58;100360.03;;;15.49;93.55
31911;BME280;18457;52.432;16.914;2022-10-16T03:10:29;100356.77;;;15.49;93.69
31911;BME280;18457;52.432;16.914;2022-10-16T03:13:01;100359.80;;;15.46;94.11
31911;BME280;18457;52.432;16.914;2022-10-16T03:15:33;100361.57;;;15.44;94.46
31911;BME280;18457;52.432;16.914;2022-10-16T03:18:05;100357.65;;;15.46;94.41
31911;BME280;18457;52.432;16.914;2022-10-16T03:20:36;100356.56;;;15.45;94.52
31911;BME280;18457;52.432;16.914;2022-10-16T03:23:08;100354.91;;;15.46;94.61
31911;BME280;18457;52.432;16.914;2022-10-16T03:25:40;100352.79;;;15.48;94.56
31911;BME280;18457;52.432;16.914;2022-10-16T03:28:12;100355.02;;;15.47;94.62
31911;BME280;18457;52.432;16.914;2022-10-16T03:30:44;100355.89;;;15.44;95.11
31911;BME280;18457;52.432;16.914;2022-10-16T03:33:15;100360.41;;;15.45;95.08
31911;BME280;18457;52.432;16.914;2022-10-16T03:35:53;100360.82;;;15.44;95.14
31911;BME280;18457;52.432;16.914;2022-10-16T03:38:25;100368.79;;;15.45;95.17
31911;BME280;18457;52.432;16.914;2022-10-16T03:40:57;100368.63;;;15.45;95.28
31911;BME280;18457;52.432;16.914;2022-10-16T03:43:28;100370.27;;;15.44;95.29
31911;BME280;18457;52.432;16.914;2022-10-16T03:46:00;100370.34;;;15.43;95.32
31911;BME280;18457;52.432;16.914;2022-10-16T03:48:32;100370.73;;;15.42;95.49
31911;BME280;18457;52.432;16.914;2022-10-16T03:51:04;100371.61;;;15.43;95.62
31911;BME280;18457;52.432;16.914;2022-10-16T03:53:36;100379.95;;;15.43;95.72
31911;BME280;18457;52.432;16.914;2022-10-16T03:56:08;100383.25;;;15.43;95.75
31911;BME280;18457;52.432;16.914;2022-10-16T03:58:39;100387.29;;;15.46;95.52
31911;BME280;18457;52.432;16.914;2022-10-16T04:01:11;100387.83;;;15.46;95.74
31911;BME280;18457;52.432;16.914;2022-10-16T04:03:43;100389.20;;;15.48;95.65
31911;BME280;18457;52.432;16.914;2022-10-16T04:06:14;100391.73;;;15.49;95.56
31911;BME280;18457;52.432;16.914;2022-10-16T04:08:46;100392.46;;;15.49;95.86
31911;BME280;18457;52.432;16.914;2022-10-16T04:11:18;100397.45;;;15.51;95.80
31911;BME280;18457;52.432;16.914;2022-10-16T04:13:49;100397.94;;;15.52;95.78
31911;BME280;18457;52.432;16.914;2022-10-16T04:16:21;100396.80;;;15.54;95.68
31911;BME280;18457;52.432;16.914;2022-10-16T04:18:53;100397.55;;;15.53;95.81
31911;BME280;18457;52.432;16.914;2022-10-16T04:21:24;100394.74;;;15.54;95.90
31911;BME280;18457;52.432;16.914;2022-10-16T04:23:56;100397.42;;;15.56;95.97
31911;BME280;18457;52.432;16.914;2022-10-16T04:26:28;100405.57;;;15.45;97.22
31911;BME280;18457;52.432;16.914;2022-10-16T04:28:59;100407.61;;;15.43;97.72
31911;BME280;18457;52.432;16.914;2022-10-16T04:31:31;100413.48;;;15.51;97.14
31911;BME280;18457;52.432;16.914;2022-10-16T04:34:03;100413.22;;;15.53;97.01
31911;BME280;18457;52.432;16.914;2022-10-16T04:36:35;100419.09;;;15.52;97.49
31911;BME280;18457;52.432;16.914;2022-10-16T04:39:07;100423.40;;;15.57;96.83
31911;BME280;18457;52.432;16.914;2022-10-16T04:41:40;100423.54;;;15.58;97.03
31911;BME280;18457;52.432;16.914;2022-10-16T04:44:12;100425.52;;;15.59;97.13
31911;BME280;18457;52.432;16.914;2022-10-16T04:46:44;100429.92;;;15.62;97.16
31911;BME280;18457;52.432;16.914;2022-10-16T04:49:16;100427.74;;;15.62;97.24
31911;BME280;18457;52.432;16.914;2022-10-16T04:51:48;100428.27;;;15.62;97.60
31911;BME280;18457;52.432;16.914;2022-10-16T04:54:20;100431.35;;;15.63;97.45
31911;BME280;18457;52.432;16.914;2022-10-16T04:56:51;100431.30;;;15.64;97.55
31911;BME280;18457;52.432;16.914;2022-10-16T04:59:23;100433.50;;;15.64;97.80
31911;BME280;18457;52.432;16.914;2022-10-16T05:01:55;100435.11;;;15.64;97.86
31911;BME280;18457;52.432;16.914;2022-10-16T05:04:26;100434.80;;;15.63;98.16
31911;BME280;18457;52.432;16.914;2022-10-16T05:06:58;100431.98;;;15.65;98.07
31911;BME280;18457;52.432;16.914;2022-10-16T05:09:29;100429.77;;;15.66;98.04
31911;BME280;18457;52.432;16.914;2022-10-16T05:12:01;100426.30;;;15.66;98.13
31911;BME280;18457;52.432;16.914;2022-10-16T05:14:33;100420.61;;;15.67;98.24
31911;BME280;18457;52.432;16.914;2022-10-16T05:17:05;100422.78;;;15.63;98.72
31911;BME280;18457;52.432;16.914;2022-10-16T05:19:37;100429.36;;;15.58;99.27
31911;BME280;18457;52.432;16.914;2022-10-16T05:22:08;100437.71;;;15.59;99.18
31911;BME280;18457;52.432;16.914;2022-10-16T05:24:40;100442.52;;;15.61;99.04
31911;BME280;18457;52.432;16.914;2022-10-16T05:27:12;100450.29;;;15.63;98.93
31911;BME280;18457;52.432;16.914;2022-10-16T05:29:49;100453.42;;;15.62;98.91
31911;BME280;18457;52.432;16.914;2022-10-16T05:32:21;100446.40;;;15.64;98.85
31911;BME280;18457;52.432;16.914;2022-10-16T05:34:52;100446.41;;;15.64;99.01
31911;BME280;18457;52.432;16.914;2022-10-16T05:37:24;100443.98;;;15.66;99.12
31911;BME280;18457;52.432;16.914;2022-10-16T05:39:56;100444.16;;;15.65;99.31
31911;BME280;18457;52.432;16.914;2022-10-16T05:42:28;100443.38;;;15.66;99.42
31911;BME280;18457;52.432;16.914;2022-10-16T05:45:00;100445.69;;;15.68;99.26
31911;BME280;18457;52.432;16.914;2022-10-16T05:47:31;100450.59;;;15.68;99.17
31911;BME280;18457;52.432;16.914;2022-10-16T05:50:04;100453.01;;;15.67;99.34
31911;BME280;18457;52.432;16.914;2022-10-16T05:52:34;100450.25;;;15.68;99.34
31911;BME280;18457;52.432;16.914;2022-10-16T05:55:07;100451.16;;;15.68;99.57
31911;BME280;18457;52.432;16.914;2022-10-16T05:57:39;100454.11;;;15.67;99.44
31911;BME280;18457;52.432;16.914;2022-10-16T06:00:12;100450.66;;;15.63;99.92
31911;BME280;18457;52.432;16.914;2022-10-16T06:02:43;100456.29;;;15.63;100.00
31911;BME280;18457;52.432;16.914;2022-10-16T06:05:15;100461.95;;;15.63;100.00
31911;BME280;18457;52.432;16.914;2022-10-16T06:07:47;100468.26;;;15.64;99.97
31911;BME280;18457;52.432;16.914;2022-10-16T06:10:18;100461.07;;;15.66;100.00
31911;BME280;18457;52.432;16.914;2022-10-16T06:12:50;100459.90;;;15.64;100.00
31911;BME280;18457;52.432;16.914;2022-10-16T06:15:22;100461.24;;;15.62;100.00
31911;BME280;18457;52.432;16.914;2022-10-16T06:17:54;100460.69;;;15.62;99.98
31911;BME280;18457;52.432;16.914;2022-10-16T06:20:25;100471.22;;;15.63;100.00
31911;BME280;18457;52.432;16.914;2022-10-16T06:22:58;100475.17;;;15.60;100.00
31911;BME280;18457;52.432;16.914;2022-10-16T06:25:29;100478.71;;;15.62;100.00
31911;BME280;18457;52.432;16.914;2022-10-16T06:28:01;100473.57;;;15.64;100.00
31911;BME280;18457;52.432;16.914;2022-10-16T06:30:33;100477.55;;;15.64;100.00
31911;BME280;18457;52.432;16.914;2022-10-16T06:33:05;100481.91;;;15.64;100.00
31911;BME280;18457;52.432;16.914;2022-10-16T06:35:36;100484.27;;;15.64;100.00
31911;BME280;18457;52.432;16.914;2022-10-16T06:38:08;100486.05;;;15.65;100.00
31911;BME280;18457;52.432;16.914;2022-10-16T06:40:40;100489.52;;;15.66;100.00
31911;BME280;18457;52.432;16.914;2022-10-16T06:43:11;100495.77;;;15.68;100.00
31911;BME280;18457;52.432;16.914;2022-10-16T06:45:43;100496.44;;;15.70;100.00
31911;BME280;18457;52.432;16.914;2022-10-16T06:48:15;100506.46;;;15.74;100.00
31911;BME280;18457;52.432;16.914;2022-10-16T06:50:56;100514.98;;;15.79;99.95
31911;BME280;18457;52.432;16.914;2022-10-16T06:53:30;100525.07;;;15.86;99.89
31911;BME280;18457;52.432;16.914;2022-10-16T06:56:14;100534.48;;;15.91;99.65
31911;BME280;18457;52.432;16.914;2022-10-16T06:58:47;100534.95;;;15.93;99.36
31911;BME280;18457;52.432;16.914;2022-10-16T07:01:18;100542.73;;;15.94;99.46
31911;BME280;18457;52.432;16.914;2022-10-16T07:03:51;100543.23;;;15.99;99.29
31911;BME280;18457;52.432;16.914;2022-10-16T07:06:25;100544.39;;;16.02;99.05
31911;BME280;18457;52.432;16.914;2022-10-16T07:08:57;100544.93;;;16.06;98.67
31911;BME280;18457;52.432;16.914;2022-10-16T07:11:29;100546.33;;;16.07;98.52
31911;BME280;18457;52.432;16.914;2022-10-16T07:14:00;100546.85;;;16.16;98.08
31911;BME280;18457;52.432;16.914;2022-10-16T07:16:34;100548.34;;;16.19;97.67
31911;BME280;18457;52.432;16.914;2022-10-16T07:19:06;100555.62;;;16.24;97.07
31911;BME280;18457;52.432;16.914;2022-10-16T07:21:37;100556.70;;;16.24;97.15
31911;BME280;18457;52.432;16.914;2022-10-16T07:24:13;100553.80;;;16.23;97.47
31911;BME280;18457;52.432;16.914;2022-10-16T07:26:46;100553.87;;;16.30;97.03
31911;BME280;18457;52.432;16.914;2022-10-16T07:29:19;100551.14;;;16.34;96.50
31911;BME280;18457;52.432;16.914;2022-10-16T07:31:51;100547.83;;;16.39;96.42
31911;BME280;18457;52.432;16.914;2022-10-16T07:34:23;100544.10;;;16.44;95.81
31911;BME280;18457;52.432;16.914;2022-10-16T07:36:55;100542.16;;;16.47;95.93
31911;BME280;18457;52.432;16.914;2022-10-16T07:39:26;100542.59;;;16.50;95.69
31911;BME280;18457;52.432;16.914;2022-10-16T07:41:58;100541.45;;;16.55;95.44
31911;BME280;18457;52.432;16.914;2022-10-16T07:44:30;100543.11;;;16.58;95.18
31911;BME280;18457;52.432;16.914;2022-10-16T07:47:01;100542.03;;;16.58;95.27
31911;BME280;18457;52.432;16.914;2022-10-16T07:49:33;100541.55;;;16.57;95.21
31911;BME280;18457;52.432;16.914;2022-10-16T07:52:05;100544.05;;;16.58;95.06
31911;BME280;18457;52.432;16.914;2022-10-16T07:54:36;100549.26;;;16.60;94.61
31911;BME280;18457;52.432;16.914;2022-10-16T07:57:08;100556.63;;;16.62;94.58
31911;BME280;18457;52.432;16.914;2022-10-16T07:59:40;100563.10;;;16.56;94.73
31911;BME280;18457;52.432;16.914;2022-10-16T08:02:11;100566.05;;;16.59;94.88
31911;BME280;18457;52.432;16.914;2022-10-16T08:04:43;100569.40;;;16.62;94.81
31911;BME280;18457;52.432;16.914;2022-10-16T08:07:17;100577.36;;;16.68;94.24
31911;BME280;18457;52.432;16.914;2022-10-16T08:09:51;100583.73;;;16.72;94.12
31911;BME280;18457;52.432;16.914;2022-10-16T08:12:23;100590.44;;;16.76;94.07
31911;BME280;18457;52.432;16.914;2022-10-16T08:14:55;100583.41;;;16.82;93.73
31911;BME280;18457;52.432;16.914;2022-10-16T08:17:27;100579.98;;;16.89;93.16
31911;BME280;18457;52.432;16.914;2022-10-16T08:19:58;100581.54;;;16.95;93.06
31911;BME280;18457;52.432;16.914;2022-10-16T08:22:30;100586.33;;;16.98;92.63
31911;BME280;18457;52.432;16.914;2022-10-16T08:25:02;100589.10;;;17.01;92.44
31911;BME280;18457;52.432;16.914;2022-10-16T08:27:34;100587.10;;;17.04;92.30
31911;BME280;18457;52.432;16.914;2022-10-16T08:30:08;100586.08;;;17.07;92.30
31911;BME280;18457;52.432;16.914;2022-10-16T08:32:40;100585.25;;;17.09;92.29
31911;BME280;18457;52.432;16.914;2022-10-16T08:35:13;100585.57;;;17.10;92.11
31911;BME280;18457;52.432;16.914;2022-10-16T08:37:45;100590.77;;;17.11;92.33
31911;BME280;18457;52.432;16.914;2022-10-16T08:40:22;100597.88;;;17.19;92.11
31911;BME280;18457;52.432;16.914;2022-10-16T08:43:15;100606.05;;;17.17;91.96
31911;BME280;18457;52.432;16.914;2022-10-16T08:45:58;100597.61;;;17.21;91.90
31911;BME280;18457;52.432;16.914;2022-10-16T08:48:43;100593.63;;;17.24;91.60
31911;BME280;18457;52.432;16.914;2022-10-16T08:51:22;100595.70;;;17.30;91.07
31911;BME280;18457;52.432;16.914;2022-10-16T08:53:56;100599.88;;;17.35;90.67
31911;BME280;18457;52.432;16.914;2022-10-16T08:56:29;100606.19;;;17.48;90.53
31911;BME280;18457;52.432;16.914;2022-10-16T08:59:02;100607.11;;;17.55;89.78
31911;BME280;18457;52.432;16.914;2022-10-16T09:01:40;100604.45;;;17.57;89.46
31911;BME280;18457;52.432;16.914;2022-10-16T09:04:42;100608.89;;;17.63;89.36
31911;BME280;18457;52.432;16.914;2022-10-16T09:07:31;100614.06;;;17.69;89.08
31911;BME280;18457;52.432;16.914;2022-10-16T09:10:18;100618.91;;;17.78;88.89
31911;BME280;18457;52.432;16.914;2022-10-16T09:12:53;100622.89;;;17.83;88.96
31911;BME280;18457;52.432;16.914;2022-10-16T09:15:34;100628.49;;;17.91;88.39
31911;BME280;18457;52.432;16.914;2022-10-16T09:18:12;100623.61;;;17.94;87.96
31911;BME280;18457;52.432;16.914;2022-10-16T09:20:51;100625.86;;;17.93;87.38
31911;BME280;18457;52.432;16.914;2022-10-16T09:23:27;100620.58;;;17.96;87.69
31911;BME280;18457;52.432;16.914;2022-10-16T09:26:00;100613.63;;;17.99;87.72
31911;BME280;18457;52.432;16.914;2022-10-16T09:28:33;100615.66;;;18.06;87.44
31911;BME280;18457;52.432;16.914;2022-10-16T09:31:05;100617.61;;;18.11;86.98
31911;BME280;18457;52.432;16.914;2022-10-16T09:33:39;100625.18;;;18.23;86.45
31911;BME280;18457;52.432;16.914;2022-10-16T09:36:14;100629.91;;;18.35;85.57
31911;BME280;18457;52.432;16.914;2022-10-16T09:38:46;100630.30;;;18.48;84.91
31911;BME280;18457;52.432;16.914;2022-10-16T09:41:21;100628.89;;;18.58;85.05
31911;BME280;18457;52.432;16.914;2022-10-16T09:43:57;100631.46;;;18.67;84.30
31911;BME280;18457;52.432;16.914;2022-10-16T09:46:33;100629.81;;;18.64;83.86
31911;BME280;18457;52.432;16.914;2022-10-16T09:49:21;100628.34;;;18.61;84.31
31911;BME280;18457;52.432;16.914;2022-10-16T09:52:05;100629.88;;;18.70;84.18
31911;BME280;18457;52.432;16.914;2022-10-16T09:54:37;100635.48;;;18.68;84.39
31911;BME280;18457;52.432;16.914;2022-10-16T09:57:18;100643.05;;;18.83;83.90
31911;BME280;18457;52.432;16.914;2022-10-16T09:59:53;100646.41;;;18.92;83.06
31911;BME280;18457;52.432;16.914;2022-10-16T10:02:29;100648.06;;;18.82;83.64
31911;BME280;18457;52.432;16.914;2022-10-16T10:05:03;100643.05;;;18.70;83.95
31911;BME280;18457;52.432;16.914;2022-10-16T10:07:42;100640.66;;;18.63;84.36
31911;BME280;18457;52.432;16.914;2022-10-16T10:10:23;100641.95;;;18.67;84.15
31911;BME280;18457;52.432;16.914;2022-10-16T10:12:57;100637.56;;;18.70;84.23
31911;BME280;18457;52.432;16.914;2022-10-16T10:15:34;100634.60;;;18.84;83.47
31911;BME280;18457;52.432;16.914;2022-10-16T10:18:18;100639.11;;;18.92;84.04
31911;BME280;18457;52.432;16.914;2022-10-16T10:21:01;100644.42;;;19.15;82.48
31911;BME280;18457;52.432;16.914;2022-10-16T10:23:34;100644.48;;;19.07;81.95
31911;BME280;18457;52.432;16.914;2022-10-16T10:26:09;100655.95;;;19.21;81.28
31911;BME280;18457;52.432;16.914;2022-10-16T10:28:57;100650.98;;;19.29;81.05
31911;BME280;18457;52.432;16.914;2022-10-16T10:31:34;100649.88;;;19.32;80.88
31911;BME280;18457;52.432;16.914;2022-10-16T10:34:25;100649.05;;;19.27;80.81
31911;BME280;18457;52.432;16.914;2022-10-16T10:37:04;100644.54;;;19.26;80.84
31911;BME280;18457;52.432;16.914;2022-10-16T10:39:43;100650.00;;;19.33;80.69
31911;BME280;18457;52.432;16.914;2022-10-16T10:42:25;100643.90;;;19.44;80.56
31911;BME280;18457;52.432;16.914;2022-10-16T10:45:21;100635.45;;;19.79;79.10
31911;BME280;18457;52.432;16.914;2022-10-16T10:48:05;100634.77;;;20.16;77.38
31911;BME280;18457;52.432;16.914;2022-10-16T10:50:48;100643.10;;;20.26;76.67
31911;BME280;18457;52.432;16.914;2022-10-16T10:53:29;100643.38;;;20.06;77.39
31911;BME280;18457;52.432;16.914;2022-10-16T10:56:14;100656.11;;;19.83;78.07
31911;BME280;18457;52.432;16.914;2022-10-16T10:59:06;100652.61;;;19.96;77.86
31911;BME280;18457;52.432;16.914;2022-10-16T11:01:48;100655.13;;;20.00;77.62
31911;BME280;18457;52.432;16.914;2022-10-16T11:04:39;100648.39;;;20.02;77.84
31911;BME280;18457;52.432;16.914;2022-10-16T11:07:18;100637.98;;;19.98;78.10
31911;BME280;18457;52.432;16.914;2022-10-16T11:09:55;100633.77;;;19.92;78.08
31911;BME280;18457;52.432;16.914;2022-10-16T11:12:31;100639.41;;;19.86;78.39
31911;BME280;18457;52.432;16.914;2022-10-16T11:15:14;100646.05;;;19.83;78.23
31911;BME280;18457;52.432;16.914;2022-10-16T11:17:52;100645.00;;;19.88;78.35
31911;BME280;18457;52.432;16.914;2022-10-16T11:20:28;100646.96;;;20.07;77.82
31911;BME280;18457;52.432;16.914;2022-10-16T11:23:07;100646.53;;;20.18;77.35
31911;BME280;18457;52.432;16.914;2022-10-16T11:25:42;100641.64;;;20.11;77.09
31911;BME280;18457;52.432;16.914;2022-10-16T11:28:17;100636.29;;;20.11;76.93
31911;BME280;18457;52.432;16.914;2022-10-16T11:30:59;100628.10;;;20.16;76.78
31911;BME280;18457;52.432;16.914;2022-10-16T11:33:36;100635.39;;;20.35;76.39
31911;BME280;18457;52.432;16.914;2022-10-16T11:36:14;100627.05;;;20.63;75.47
31911;BME280;18457;52.432;16.914;2022-10-16T11:38:53;100627.27;;;20.98;74.40
31911;BME280;18457;52.432;16.914;2022-10-16T11:41:32;100625.64;;;20.92;74.16
31911;BME280;18457;52.432;16.914;2022-10-16T11:44:16;100632.30;;;20.76;73.97
31911;BME280;18457;52.432;16.914;2022-10-16T11:46:57;100634.21;;;20.72;73.18
31911;BME280;18457;52.432;16.914;2022-10-16T11:49:55;100641.84;;;20.74;72.69
31911;BME280;18457;52.432;16.914;2022-10-16T11:52:36;100640.48;;;20.69;72.31
31911;BME280;18457;52.432;16.914;2022-10-16T11:55:16;100648.62;;;20.59;72.10
31911;BME280;18457;52.432;16.914;2022-10-16T11:57:51;100645.64;;;20.54;71.65
31911;BME280;18457;52.432;16.914;2022-10-16T12:00:27;100645.29;;;20.56;71.84
31911;BME280;18457;52.432;16.914;2022-10-16T12:03:05;100652.63;;;20.57;72.09
31911;BME280;18457;52.432;16.914;2022-10-16T12:05:55;100659.98;;;20.62;72.21
31911;BME280;18457;52.432;16.914;2022-10-16T12:08:30;100657.05;;;20.71;72.54
31911;BME280;18457;52.432;16.914;2022-10-16T12:11:20;100652.58;;;20.75;72.31
31911;BME280;18457;52.432;16.914;2022-10-16T12:14:06;100649.14;;;20.71;72.61
31911;BME280;18457;52.432;16.914;2022-10-16T12:16:50;100649.05;;;20.67;72.68
31911;BME280;18457;52.432;16.914;2022-10-16T12:19:23;100657.05;;;20.71;72.59
31911;BME280;18457;52.432;16.914;2022-10-16T12:21:58;100658.66;;;20.77;72.37
31911;BME280;18457;52.432;16.914;2022-10-16T12:24:38;100653.40;;;20.74;71.97
31911;BME280;18457;52.432;16.914;2022-10-16T12:27:27;100651.00;;;20.65;71.72
31911;BME280;18457;52.432;16.914;2022-10-16T12:30:02;100653.69;;;20.49;71.68
31911;BME280;18457;52.432;16.914;2022-10-16T12:32:37;100654.80;;;20.45;72.05
31911;BME280;18457;52.432;16.914;2022-10-16T12:35:22;100659.65;;;20.44;72.23
31911;BME280;18457;52.432;16.914;2022-10-16T12:38:03;100661.98;;;20.51;74.10
31911;BME280;18457;52.432;16.914;2022-10-16T12:40:38;100667.76;;;20.46;72.22
31911;BME280;18457;52.432;16.914;2022-10-16T12:43:27;100668.16;;;20.49;72.69
31911;BME280;18457;52.432;16.914;2022-10-16T12:46:19;100665.20;;;20.53;72.19
31911;BME280;18457;52.432;16.914;2022-10-16T12:48:53;100668.23;;;20.57;72.08
31911;BME280;18457;52.432;16.914;2022-10-16T12:51:38;100669.58;;;20.53;71.39
31911;BME280;18457;52.432;16.914;2022-10-16T12:54:13;100669.67;;;20.60;70.05
31911;BME280;18457;52.432;16.914;2022-10-16T12:56:55;100655.53;;;20.87;68.67
31911;BME280;18457;52.432;16.914;2022-10-16T12:59:37;100661.29;;;20.97;68.28
31911;BME280;18457;52.432;16.914;2022-10-16T13:05:24;100669.27;;;21.05;67.39
31911;BME280;18457;52.432;16.914;2022-10-16T13:07:59;100678.63;;;21.14;66.39
31911;BME280;18457;52.432;16.914;2022-10-16T13:10:38;100682.91;;;21.07;66.83
31911;BME280;18457;52.432;16.914;2022-10-16T13:13:27;100679.83;;;20.95;67.18
31911;BME280;18457;52.432;16.914;2022-10-16T13:16:12;100686.52;;;20.82;67.43
31911;BME280;18457;52.432;16.914;2022-10-16T13:18:53;100688.11;;;20.76;67.84
31911;BME280;18457;52.432;16.914;2022-10-16T13:21:38;100686.18;;;20.66;68.29
31911;BME280;18457;52.432;16.914;2022-10-16T13:24:22;100687.23;;;20.61;68.99
31911;BME280;18457;52.432;16.914;2022-10-16T13:27:01;100692.66;;;20.56;69.13
31911;BME280;18457;52.432;16.914;2022-10-16T13:29:37;100688.23;;;20.57;69.28